Flight Track Log - Related Links

Times and Time Zones

All times are in EDT time to prevent confusion due to time zone crossing. See the N589H flight status page for this flight to view local times or setup timezone preferences in your user account.


Time Position Orientation Groundspeed Altitude Reporting Facility
EDT Latitude Longitude Course Direction KTS MPH feet Rate Location/Type
Thu 06:38:14 PM 45.4500 -73.7167 205° Southwest 60 69 200  Level Montreal Center
Thu 06:39:14 PM 45.4167 -73.7500 215° Southwest 160 184 2,600 2,300 Climbing Montreal Center
Thu 06:40:14 PM 45.3667 -73.7500 180° South 160 184 4,800 1,150 Climbing Montreal Center
Thu 06:41:14 PM 45.3167 -73.7833 205° Southwest 210 242 4,900 300 Climbing Montreal Center
Thu 06:42:00 PM 45.4591 -73.7458 199° South  Level FlightAware Approximate
Thu 06:42:14 PM 45.2500 -73.8000 190° South 230 265 5,400  Level Montreal Center
Thu 06:43:00 PM 45.3979 -73.8004 205° Southwest  Level Estimated
Thu 06:43:14 PM 45.2000 -73.8333 205° Southwest 210 242 7,600  Level Montreal Center
Thu 06:44:14 PM 45.1500 -73.8500 193° South 190 219 9,900 2,150 Climbing Montreal Center
Thu 06:45:14 PM 45.1000 -73.9000 215° Southwest 190 219 11,900 1,900 Climbing Montreal Center
Thu 06:46:14 PM 45.0500 -73.9333 205° Southwest 200 230 13,700 1,650 Climbing Montreal Center
Thu 06:47:14 PM 45.0000 -73.9500 193° South 210 242 15,200 1,450 Climbing Montreal Center
Thu 06:48:14 PM 44.9333 -73.9833 199° South 220 253 16,600 1,450 Climbing Montreal Center
Thu 06:49:14 PM 44.8833 -74.0333 215° Southwest 230 265 18,100 1,438 Climbing Montreal Center
Thu 06:49:50 PM 44.8625 -74.0561 218° Southwest 232 267 18,900 1,485 Climbing Boston Center
Thu 06:50:51 PM 44.8006 -74.0928 203° Southwest 233 268 20,500 1,574 Climbing Boston Center
Thu 06:51:52 PM 44.7378 -74.1308 203° Southwest 241 277 22,100 1,623 Climbing Boston Center
Thu 06:52:53 PM 44.6783 -74.1728 207° Southwest 241 277 23,800 1,597 Climbing Boston Center
Thu 06:53:56 PM 44.6200 -74.2189 209° Southwest 241 277 25,400 1,355 Climbing Boston Center
Thu 06:54:57 PM 44.5611 -74.2658 210° Southwest 244 281 26,600 1,190 Climbing Boston Center
Thu 06:55:57 PM 44.4983 -74.3131 208° Southwest 252 290 27,800 1,210 Climbing Boston Center
Thu 06:57:01 PM 44.4292 -74.3672 209° Southwest 262 302 29,100 1,161 Climbing Boston Center
Thu 06:58:01 PM 44.3667 -74.4153 209° Southwest 261 300 30,200 1,041 Climbing Boston Center
Thu 06:59:02 PM 44.3019 -74.4650 209° Southwest 262 302 31,200 878 Climbing Boston Center
Thu 07:00:04 PM 44.2367 -74.5158 209° Southwest 268 308 32,000 393 Climbing Boston Center
Thu 07:01:04 PM 44.1531 -74.5800 209° Southwest 285 328 32,000  Level Boston Center
Thu 07:02:05 PM 44.0758 -74.6367 208° Southwest 306 352 32,000  Level Boston Center
Thu 07:03:08 PM 43.9978 -74.6964 209° Southwest 319 367 32,000  Level Boston Center
Thu 07:04:10 PM 43.9175 -74.7569 209° Southwest 325 374 32,000  Level Boston Center
Thu 07:05:10 PM 43.8364 -74.8203 209° Southwest 333 383 32,000  Level Boston Center
Thu 07:06:10 PM 43.7542 -74.8814 208° Southwest 335 386 32,000  Level Boston Center
Thu 07:07:14 PM 43.6711 -74.9442 209° Southwest 336 387 32,000  Level Boston Center
Thu 07:08:14 PM 43.5878 -75.0081 209° Southwest 339 390 32,000  Level Boston Center
Thu 07:09:14 PM 43.5036 -75.0697 208° Southwest 340 391 32,000  Level Boston Center
Thu 07:10:18 PM 43.4033 -75.1439 208° Southwest 340 391 32,000  Level Boston Center
Thu 07:10:55 PM 43.3642 -75.1714 207° Southwest 340 391 32,000  Level Boston Center
Thu 07:11:55 PM 43.2717 -75.2431 209° Southwest 346 398 32,000  Level Boston Center
Thu 07:12:56 PM 43.1997 -75.3050 212° Southwest 341 392 32,000  Level Boston Center
Thu 07:13:57 PM 43.1175 -75.3717 211° Southwest 341 392 32,000  Level Boston Center
Thu 07:14:58 PM 43.0167 -75.4522 210° Southwest 345 397 32,000  Level Boston Center
Thu 07:15:58 PM 42.9328 -75.5200 211° Southwest 347 399 32,000  Level Boston Center
Thu 07:17:02 PM 42.8486 -75.5872 210° Southwest 350 403 32,000  Level Boston Center
Thu 07:18:01 PM 42.7650 -75.6542 210° Southwest 347 399 32,000  Level Boston Center
Thu 07:19:04 PM 42.6803 -75.7219 210° Southwest 350 403 32,000  Level Boston Center
Thu 07:20:05 PM 42.5961 -75.7892 210° Southwest 349 402 32,000  Level Boston Center
Thu 07:21:05 PM 42.5111 -75.8567 210° Southwest 351 404 32,000  Level Boston Center
Thu 07:22:06 PM 42.4264 -75.9228 210° Southwest 350 403 32,000  Level Boston Center
Thu 07:23:10 PM 42.3408 -75.9897 210° Southwest 354 407 32,000  Level Boston Center
Thu 07:24:10 PM 42.2531 -76.0575 210° Southwest 352 405 32,000  Level Boston Center
Thu 07:25:02 PM 42.1647 -76.1286 211° Southwest 363 418 32,000  Level New York Center
Thu 07:26:02 PM 42.0783 -76.1969 210° Southwest 363 418 32,000  Level New York Center
Thu 07:27:02 PM 41.9922 -76.2625 210° Southwest 363 418 32,000  Level New York Center
Thu 07:28:02 PM 41.9058 -76.3278 209° Southwest 363 418 32,000  Level New York Center
Thu 07:29:02 PM 41.8214 -76.3958 211° Southwest 363 418 32,000  Level New York Center
Thu 07:30:02 PM 41.7350 -76.4581 208° Southwest 363 418 32,000  Level New York Center
Thu 07:31:02 PM 41.6528 -76.5233 211° Southwest 363 418 32,000  Level New York Center
Thu 07:32:02 PM 41.5664 -76.5878 209° Southwest 363 418 32,000  Level New York Center
Thu 07:33:02 PM 41.4883 -76.6475 210° Southwest 363 418 32,000  Level New York Center
Thu 07:34:02 PM 41.4019 -76.7119 209° Southwest 358 412 32,000  Level New York Center
Thu 07:35:02 PM 41.3172 -76.7792 211° Southwest 358 412 32,000  Level New York Center
Thu 07:36:03 PM 41.2308 -76.8431 209° Southwest 358 412 32,000  Level New York Center
Thu 07:37:02 PM 41.1464 -76.9044 209° Southwest 358 412 32,000  Level New York Center
Thu 07:38:02 PM 41.0617 -76.9683 210° Southwest 358 412 32,000  Level New York Center
Thu 07:39:02 PM 40.9769 -77.0322 210° Southwest 358 412 32,000  Level New York Center
Thu 07:40:03 PM 40.8903 -77.0956 209° Southwest 358 412 32,000  Level New York Center
Thu 07:41:02 PM 40.8078 -77.1592 210° Southwest 353 406 32,000  Level New York Center
Thu 07:42:02 PM 40.7189 -77.2222 208° Southwest 353 406 32,000  Level New York Center
Thu 07:43:02 PM 40.6342 -77.2853 209° Southwest 353 406 32,000  Level New York Center
Thu 07:44:02 PM 40.5514 -77.3486 210° Southwest 353 406 32,000  Level New York Center
Thu 07:45:02 PM 40.4667 -77.4114 209° Southwest 353 406 32,000  Level New York Center
Thu 07:46:02 PM 40.3794 -77.4767 210° Southwest 353 406 32,000  Level New York Center
Thu 07:47:02 PM 40.2906 -77.5361 207° Southwest 353 406 32,000  Level New York Center
Thu 07:48:02 PM 40.2058 -77.5986 209° Southwest 353 406 32,000  Level New York Center
Thu 07:49:50 PM 40.0514 -77.7108 209° Southwest 354 407 32,000  Level Washington Center
Thu 07:50:53 PM 39.9669 -77.7706 208° Southwest 354 407 32,000  Level Washington Center
Thu 07:51:51 PM 39.8803 -77.8328 209° Southwest 354 407 32,000  Level Washington Center
Thu 07:52:51 PM 39.7939 -77.8950 209° Southwest 354 407 32,000  Level Washington Center
Thu 07:53:52 PM 39.7114 -77.9572 210° Southwest 354 407 32,000  Level Washington Center
Thu 07:54:50 PM 39.6269 -78.0164 208° Southwest 354 407 32,000  Level Washington Center
Thu 07:55:52 PM 39.5422 -78.0753 208° Southwest 354 407 32,000  Level Washington Center
Thu 07:56:52 PM 39.4578 -78.1344 208° Southwest 354 407 32,000  Level Washington Center
Thu 07:57:50 PM 39.3731 -78.1931 208° Southwest 354 407 32,000  Level Washington Center
Thu 07:58:51 PM 39.2906 -78.2544 210° Southwest 354 407 32,000  Level Washington Center
Thu 07:59:52 PM 39.2058 -78.3131 208° Southwest 354 407 32,000  Level Washington Center
Thu 08:00:52 PM 39.1189 -78.3739 208° Southwest 354 407 32,000  Level Washington Center
Thu 08:01:50 PM 39.0342 -78.4350 209° Southwest 354 407 32,000  Level Washington Center
Thu 08:02:51 PM 38.9494 -78.4931 208° Southwest 354 407 32,000  Level Washington Center
Thu 08:03:52 PM 38.8644 -78.5511 208° Southwest 354 407 32,000  Level Washington Center
Thu 08:04:52 PM 38.7775 -78.6114 208° Southwest 354 407 32,000  Level Washington Center
Thu 08:05:50 PM 38.6906 -78.6717 208° Southwest 354 407 32,000  Level Washington Center
Thu 08:06:51 PM 38.6056 -78.7319 209° Southwest 354 407 32,000  Level Washington Center
Thu 08:07:53 PM 38.5186 -78.7919 208° Southwest 354 407 32,000  Level Washington Center
Thu 08:08:50 PM 38.4314 -78.8517 208° Southwest 354 407 32,000  Level Washington Center
Thu 08:09:51 PM 38.3442 -78.9142 209° Southwest 359 413 32,000  Level Washington Center
Thu 08:10:52 PM 38.2592 -78.9739 209° Southwest 359 413 32,000  Level Washington Center
Thu 08:11:52 PM 38.1633 -79.0381 208° Southwest 359 413 32,000 -200 Level Washington Center
Thu 08:12:52 PM 38.0783 -79.0975 209° Southwest 354 407 31,600 -559 Descending Washington Center
Thu 08:13:50 PM 37.9889 -79.1567 208° Southwest 354 407 30,900 -700 Descending Washington Center
Thu 08:14:52 PM 37.9017 -79.2156 208° Southwest 354 407 30,200 -738 Descending Washington Center
Thu 08:15:52 PM 37.8208 -79.2697 208° Southwest 359 413 29,400 -750 Descending Washington Center
Thu 08:16:52 PM 37.7314 -79.3283 207° Southwest 359 413 28,700 -763 Descending Washington Center
Thu 08:17:50 PM 37.6400 -79.3842 206° Southwest 359 413 27,900 -908 Descending Washington Center
Thu 08:18:51 PM 37.5419 -79.4500 208° Southwest 359 413 26,900 -893 Descending Washington Center
Thu 08:19:51 PM 37.4608 -79.5033 208° Southwest 359 413 26,100 -850 Descending Washington Center
Thu 08:20:51 PM 37.3711 -79.5667 209° Southwest 364 419 25,200 -992 Descending Washington Center
Thu 08:21:52 PM 37.2858 -79.6222 207° Southwest 359 413 24,100 -1,664 Descending Washington Center
Thu 08:22:50 PM 37.2025 -79.6781 208° Southwest 348 400 21,900 -2,390 Descending Washington Center
Thu 08:23:50 PM 37.1172 -79.7358 208° Southwest 341 392 19,400 -2,132 Descending Washington Center
Thu 08:24:51 PM 37.0381 -79.7864 207° Southwest 330 380 17,600 -1,785 Descending Washington Center
Thu 08:25:51 PM 36.9614 -79.8367 208° Southwest 324 373 15,800 -1,785 Descending Washington Center
Thu 08:26:52 PM 36.8886 -79.8847 208° Southwest 313 360 14,000 -690 Descending Washington Center
Thu 08:40:03 PM 35.9767 -80.3772 205° Southwest 246 283 6,000 -584 Descending Atlanta Center
Thu 08:40:34 PM 35.9436 -80.3914 199° South 241 277 6,000  Level Atlanta Center
Thu 08:41:00 PM 35.7188 -80.6252 205° Southwest  Level FlightAware Approximate
Thu 08:41:35 PM 35.8839 -80.4225 203° Southwest 237 273 6,000  Level Atlanta Center
Thu 08:42:00 PM 35.6347 -80.6743 205° Southwest  Level FlightAware Approximate
Thu 08:42:36 PM 35.8228 -80.4661 210° Southwest 248 285 6,000  Level Atlanta Center
Thu 08:43:00 PM 35.5506 -80.7233 205° Southwest  Level FlightAware Approximate
Thu 08:43:37 PM 35.7806 -80.5267 229° Southwest 236 272 6,000  Level Atlanta Center
Thu 08:44:38 PM 35.7281 -80.5803 220° Southwest 230 265 6,000  Level Atlanta Center
Thu 08:45:39 PM 35.6728 -80.6261 214° Southwest 237 273 6,000  Level Atlanta Center
Thu 08:46:46 PM 35.6181 -80.6794 218° Southwest 241 277 6,000  Level Atlanta Center
Thu 08:47:47 PM 35.5569 -80.7331 216° Southwest 243 280 6,000 -248 Level Atlanta Center
Thu 08:48:47 PM 35.5061 -80.7836 219° Southwest 239 275 5,500 -694 Descending Atlanta Center
Thu 08:49:48 PM 35.4592 -80.8261 216° Southwest 206 237 4,600 -885 Descending Atlanta Center
Thu 08:50:49 PM 35.4167 -80.8686 219° Southwest 194 223 3,700 -787 Descending Atlanta Center
Thu 08:51:50 PM 35.3694 -80.9008 209° Southwest 204 235 3,000 -492 Descending Atlanta Center
Thu 08:52:51 PM 35.3283 -80.9306 211° Southwest 150 173 2,700 -443 Descending Atlanta Center
Thu 08:53:52 PM 35.2975 -80.9469 203° Southwest 117 135 2,100 -541 Descending Atlanta Center
Thu 08:54:53 PM 35.2639 -80.9406 171° South 112 129 1,600 -590 Descending Atlanta Center
Thu 08:55:54 PM 35.2306 -80.9392 178° South 122 140 900 -689 Descending Atlanta Center

Login

Don't have an account? Register now (free) for customized features, flight alerts, and more!